sensor_id;sensor_type;location;lat;lon;timestamp;temperature;humidity
7472;DHT22;3777;48.722;8.110;2023-02-02T00:01:19;6.50;99.90
7472;DHT22;3777;48.722;8.110;2023-02-02T00:03:46;6.50;99.90
7472;DHT22;3777;48.722;8.110;2023-02-02T00:06:15;6.40;99.90
7472;DHT22;3777;48.722;8.110;2023-02-02T00:08:43;6.40;99.90
7472;DHT22;3777;48.722;8.110;2023-02-02T00:11:10;6.40;99.90
7472;DHT22;3777;48.722;8.110;2023-02-02T00:13:39;6.50;99.90
7472;DHT22;3777;48.722;8.110;2023-02-02T00:16:34;6.50;99.90
7472;DHT22;3777;48.722;8.110;2023-02-02T00:19:02;6.40;99.90
7472;DHT22;3777;48.722;8.110;2023-02-02T00:21:29;6.40;99.90
7472;DHT22;3777;48.722;8.110;2023-02-02T00:23:56;6.30;99.90
7472;DHT22;3777;48.722;8.110;2023-02-02T00:26:24;6.30;99.90
7472;DHT22;3777;48.722;8.110;2023-02-02T00:28:52;6.40;99.90
7472;DHT22;3777;48.722;8.110;2023-02-02T00:31:19;6.30;99.90
7472;DHT22;3777;48.722;8.110;2023-02-02T00:33:47;6.30;99.90
7472;DHT22;3777;48.722;8.110;2023-02-02T00:36:15;6.40;99.90
7472;DHT22;3777;48.722;8.110;2023-02-02T00:38:42;6.40;99.90
7472;DHT22;3777;48.722;8.110;2023-02-02T00:41:09;6.50;99.90
7472;DHT22;3777;48.722;8.110;2023-02-02T00:43:36;6.60;99.90
7472;DHT22;3777;48.722;8.110;2023-02-02T00:46:05;6.60;99.90
7472;DHT22;3777;48.722;8.110;2023-02-02T00:48:31;6.70;99.90
7472;DHT22;3777;48.722;8.110;2023-02-02T00:50:58;6.60;99.90
7472;DHT22;3777;48.722;8.110;2023-02-02T00:53:26;6.70;99.90
7472;DHT22;3777;48.722;8.110;2023-02-02T00:55:53;6.70;99.90
7472;DHT22;3777;48.722;8.110;2023-02-02T00:58:20;6.80;99.90
7472;DHT22;3777;48.722;8.110;2023-02-02T01:00:47;6.80;99.90
7472;DHT22;3777;48.722;8.110;2023-02-02T01:03:15;6.80;99.90
7472;DHT22;3777;48.722;8.110;2023-02-02T01:05:42;6.80;99.90
7472;DHT22;3777;48.722;8.110;2023-02-02T01:08:09;6.80;99.90
7472;DHT22;3777;48.722;8.110;2023-02-02T01:10:36;6.80;99.90
7472;DHT22;3777;48.722;8.110;2023-02-02T01:13:04;6.90;99.90
7472;DHT22;3777;48.722;8.110;2023-02-02T01:15:31;6.90;99.90
7472;DHT22;3777;48.722;8.110;2023-02-02T01:17:58;6.90;99.90
7472;DHT22;3777;48.722;8.110;2023-02-02T01:20:26;6.90;99.90
7472;DHT22;3777;48.722;8.110;2023-02-02T01:22:53;7.00;99.90
7472;DHT22;3777;48.722;8.110;2023-02-02T01:25:20;7.10;99.90
7472;DHT22;3777;48.722;8.110;2023-02-02T01:27:47;7.10;99.90
7472;DHT22;3777;48.722;8.110;2023-02-02T01:30:14;7.10;99.90
7472;DHT22;3777;48.722;8.110;2023-02-02T01:32:41;7.10;99.90
7472;DHT22;3777;48.722;8.110;2023-02-02T01:35:08;7.00;99.90
7472;DHT22;3777;48.722;8.110;2023-02-02T01:37:37;7.00;99.90
7472;DHT22;3777;48.722;8.110;2023-02-02T01:40:06;7.00;99.90
7472;DHT22;3777;48.722;8.110;2023-02-02T01:42:33;7.00;99.90
7472;DHT22;3777;48.722;8.110;2023-02-02T01:45:11;7.00;99.90
7472;DHT22;3777;48.722;8.110;2023-02-02T01:47:42;6.90;99.90
7472;DHT22;3777;48.722;8.110;2023-02-02T01:50:11;6.90;99.90
7472;DHT22;3777;48.722;8.110;2023-02-02T01:52:42;6.90;99.90
7472;DHT22;3777;48.722;8.110;2023-02-02T01:55:13;6.80;99.90
7472;DHT22;3777;48.722;8.110;2023-02-02T01:57:45;6.90;99.90
7472;DHT22;3777;48.722;8.110;2023-02-02T02:00:14;6.80;99.90
7472;DHT22;3777;48.722;8.110;2023-02-02T02:02:43;6.70;99.90
7472;DHT22;3777;48.722;8.110;2023-02-02T02:05:14;6.70;99.90
7472;DHT22;3777;48.722;8.110;2023-02-02T02:07:45;6.80;99.90
7472;DHT22;3777;48.722;8.110;2023-02-02T02:10:15;6.80;99.90
7472;DHT22;3777;48.722;8.110;2023-02-02T02:12:42;6.90;99.90
7472;DHT22;3777;48.722;8.110;2023-02-02T02:15:10;6.90;99.90
7472;DHT22;3777;48.722;8.110;2023-02-02T02:18:03;6.90;99.90
7472;DHT22;3777;48.722;8.110;2023-02-02T02:27:39;6.90;99.90
7472;DHT22;3777;48.722;8.110;2023-02-02T02:30:30;6.90;99.90
7472;DHT22;3777;48.722;8.110;2023-02-02T02:33:03;6.90;99.90
7472;DHT22;3777;48.722;8.110;2023-02-02T02:35:36;6.70;99.90
7472;DHT22;3777;48.722;8.110;2023-02-02T02:38:12;6.70;99.90
7472;DHT22;3777;48.722;8.110;2023-02-02T02:40:45;6.70;99.90
7472;DHT22;3777;48.722;8.110;2023-02-02T02:43:18;6.70;99.90
7472;DHT22;3777;48.722;8.110;2023-02-02T02:45:45;6.60;99.90
7472;DHT22;3777;48.722;8.110;2023-02-02T02:48:14;6.60;99.90
7472;DHT22;3777;48.722;8.110;2023-02-02T02:50:41;6.50;99.90
7472;DHT22;3777;48.722;8.110;2023-02-02T02:53:11;6.40;99.90
7472;DHT22;3777;48.722;8.110;2023-02-02T02:55:47;6.40;99.90
7472;DHT22;3777;48.722;8.110;2023-02-02T02:58:18;6.30;99.90
7472;DHT22;3777;48.722;8.110;2023-02-02T03:01:02;6.30;99.90
7472;DHT22;3777;48.722;8.110;2023-02-02T03:03:52;6.30;99.90
7472;DHT22;3777;48.722;8.110;2023-02-02T03:06:27;6.30;99.90
7472;DHT22;3777;48.722;8.110;2023-02-02T03:08:59;6.30;99.90
7472;DHT22;3777;48.722;8.110;2023-02-02T03:11:27;6.30;99.90
7472;DHT22;3777;48.722;8.110;2023-02-02T03:13:54;6.30;99.90
7472;DHT22;3777;48.722;8.110;2023-02-02T03:16:21;6.40;99.90
7472;DHT22;3777;48.722;8.110;2023-02-02T03:18:50;6.30;99.90
7472;DHT22;3777;48.722;8.110;2023-02-02T03:21:17;6.30;99.90
7472;DHT22;3777;48.722;8.110;2023-02-02T03:23:44;6.30;99.90
7472;DHT22;3777;48.722;8.110;2023-02-02T03:26:11;6.30;99.90
7472;DHT22;3777;48.722;8.110;2023-02-02T03:28:38;6.30;99.90
7472;DHT22;3777;48.722;8.110;2023-02-02T03:31:05;6.30;99.90
7472;DHT22;3777;48.722;8.110;2023-02-02T03:33:34;6.30;99.90
7472;DHT22;3777;48.722;8.110;2023-02-02T03:36:04;6.30;99.90
7472;DHT22;3777;48.722;8.110;2023-02-02T03:38:31;6.30;99.90
7472;DHT22;3777;48.722;8.110;2023-02-02T03:40:58;6.40;99.90
7472;DHT22;3777;48.722;8.110;2023-02-02T03:43:24;6.40;99.90
7472;DHT22;3777;48.722;8.110;2023-02-02T03:45:55;6.40;99.90
7472;DHT22;3777;48.722;8.110;2023-02-02T03:48:23;6.40;99.90
7472;DHT22;3777;48.722;8.110;2023-02-02T03:50:50;6.50;99.90
7472;DHT22;3777;48.722;8.110;2023-02-02T03:53:18;6.50;99.90
7472;DHT22;3777;48.722;8.110;2023-02-02T03:55:45;6.50;99.90
7472;DHT22;3777;48.722;8.110;2023-02-02T03:58:12;6.50;99.90
7472;DHT22;3777;48.722;8.110;2023-02-02T04:00:39;6.50;99.90
7472;DHT22;3777;48.722;8.110;2023-02-02T04:03:06;6.40;99.90
7472;DHT22;3777;48.722;8.110;2023-02-02T04:05:32;6.50;99.90
7472;DHT22;3777;48.722;8.110;2023-02-02T04:07:59;6.50;99.90
7472;DHT22;3777;48.722;8.110;2023-02-02T04:10:28;6.50;99.90
7472;DHT22;3777;48.722;8.110;2023-02-02T04:12:55;6.50;99.90
7472;DHT22;3777;48.722;8.110;2023-02-02T04:15:21;6.50;99.90
7472;DHT22;3777;48.722;8.110;2023-02-02T04:17:48;6.50;99.90
7472;DHT22;3777;48.722;8.110;2023-02-02T04:20:16;6.50;99.90
7472;DHT22;3777;48.722;8.110;2023-02-02T04:22:43;6.50;99.90
7472;DHT22;3777;48.722;8.110;2023-02-02T04:25:10;6.50;99.90
7472;DHT22;3777;48.722;8.110;2023-02-02T04:27:38;6.60;99.90
7472;DHT22;3777;48.722;8.110;2023-02-02T04:30:06;6.60;99.90
7472;DHT22;3777;48.722;8.110;2023-02-02T04:32:33;6.60;99.90
7472;DHT22;3777;48.722;8.110;2023-02-02T04:35:00;6.60;99.90
7472;DHT22;3777;48.722;8.110;2023-02-02T04:37:29;6.60;99.90
7472;DHT22;3777;48.722;8.110;2023-02-02T04:39:57;6.60;99.90
7472;DHT22;3777;48.722;8.110;2023-02-02T04:42:23;6.60;99.90
7472;DHT22;3777;48.722;8.110;2023-02-02T04:44:52;6.50;99.90
7472;DHT22;3777;48.722;8.110;2023-02-02T04:47:19;6.50;99.90
7472;DHT22;3777;48.722;8.110;2023-02-02T04:49:46;6.50;99.90
7472;DHT22;3777;48.722;8.110;2023-02-02T04:52:13;6.60;99.90
7472;DHT22;3777;48.722;8.110;2023-02-02T04:54:39;6.60;99.90
7472;DHT22;3777;48.722;8.110;2023-02-02T04:57:06;6.70;99.90
7472;DHT22;3777;48.722;8.110;2023-02-02T04:59:33;6.70;99.90
7472;DHT22;3777;48.722;8.110;2023-02-02T05:02:02;6.80;99.90
7472;DHT22;3777;48.722;8.110;2023-02-02T05:04:29;6.80;99.90
7472;DHT22;3777;48.722;8.110;2023-02-02T05:06:55;6.80;99.90
7472;DHT22;3777;48.722;8.110;2023-02-02T05:09:23;6.80;99.90
7472;DHT22;3777;48.722;8.110;2023-02-02T05:11:49;6.80;99.90
7472;DHT22;3777;48.722;8.110;2023-02-02T05:14:16;6.80;99.90
7472;DHT22;3777;48.722;8.110;2023-02-02T05:16:45;6.80;99.90
7472;DHT22;3777;48.722;8.110;2023-02-02T05:19:13;6.80;99.90
7472;DHT22;3777;48.722;8.110;2023-02-02T05:21:42;6.70;99.90
7472;DHT22;3777;48.722;8.110;2023-02-02T05:24:10;6.70;99.90
7472;DHT22;3777;48.722;8.110;2023-02-02T05:26:37;6.70;99.90
7472;DHT22;3777;48.722;8.110;2023-02-02T05:29:04;6.70;99.90
7472;DHT22;3777;48.722;8.110;2023-02-02T05:31:32;6.60;99.90
7472;DHT22;3777;48.722;8.110;2023-02-02T05:33:59;6.50;99.90
7472;DHT22;3777;48.722;8.110;2023-02-02T05:36:27;6.60;99.90
7472;DHT22;3777;48.722;8.110;2023-02-02T05:38:54;6.60;99.90
7472;DHT22;3777;48.722;8.110;2023-02-02T05:41:21;6.70;99.90
7472;DHT22;3777;48.722;8.110;2023-02-02T05:43:48;6.60;99.90
7472;DHT22;3777;48.722;8.110;2023-02-02T05:46:15;6.60;99.90
7472;DHT22;3777;48.722;8.110;2023-02-02T05:48:42;6.60;99.90
7472;DHT22;3777;48.722;8.110;2023-02-02T05:51:13;6.60;99.90
7472;DHT22;3777;48.722;8.110;2023-02-02T05:53:43;6.70;99.90
7472;DHT22;3777;48.722;8.110;2023-02-02T05:56:10;6.70;99.90
7472;DHT22;3777;48.722;8.110;2023-02-02T05:58:37;6.70;99.90
7472;DHT22;3777;48.722;8.110;2023-02-02T06:01:04;6.80;99.90
7472;DHT22;3777;48.722;8.110;2023-02-02T06:03:31;6.80;99.90
7472;DHT22;3777;48.722;8.110;2023-02-02T06:05:58;6.80;99.90
7472;DHT22;3777;48.722;8.110;2023-02-02T06:08:25;6.80;99.90
7472;DHT22;3777;48.722;8.110;2023-02-02T06:10:54;6.80;99.90
7472;DHT22;3777;48.722;8.110;2023-02-02T06:13:21;6.70;99.90
7472;DHT22;3777;48.722;8.110;2023-02-02T06:15:48;6.80;99.90
7472;DHT22;3777;48.722;8.110;2023-02-02T06:18:15;6.90;99.90
7472;DHT22;3777;48.722;8.110;2023-02-02T06:20:42;6.90;99.90
7472;DHT22;3777;48.722;8.110;2023-02-02T06:23:10;6.80;99.90
7472;DHT22;3777;48.722;8.110;2023-02-02T06:25:37;6.70;99.90
7472;DHT22;3777;48.722;8.110;2023-02-02T06:28:05;6.70;99.90
7472;DHT22;3777;48.722;8.110;2023-02-02T06:30:33;6.80;99.90
7472;DHT22;3777;48.722;8.110;2023-02-02T06:32:59;6.80;99.90
7472;DHT22;3777;48.722;8.110;2023-02-02T06:35:26;6.80;99.90
7472;DHT22;3777;48.722;8.110;2023-02-02T06:37:53;6.70;99.90
7472;DHT22;3777;48.722;8.110;2023-02-02T06:40:20;6.60;99.90
7472;DHT22;3777;48.722;8.110;2023-02-02T06:42:47;6.70;99.90
7472;DHT22;3777;48.722;8.110;2023-02-02T06:45:22;6.60;99.90
7472;DHT22;3777;48.722;8.110;2023-02-02T06:47:49;6.50;99.90
7472;DHT22;3777;48.722;8.110;2023-02-02T06:50:16;6.60;99.90
7472;DHT22;3777;48.722;8.110;2023-02-02T06:52:46;6.60;99.90
7472;DHT22;3777;48.722;8.110;2023-02-02T06:55:14;6.60;99.90
7472;DHT22;3777;48.722;8.110;2023-02-02T06:57:40;6.60;99.90
7472;DHT22;3777;48.722;8.110;2023-02-02T07:00:08;6.60;99.90
7472;DHT22;3777;48.722;8.110;2023-02-02T07:02:37;6.60;99.90
7472;DHT22;3777;48.722;8.110;2023-02-02T07:05:05;6.60;99.90
7472;DHT22;3777;48.722;8.110;2023-02-02T07:07:32;6.50;99.90
7472;DHT22;3777;48.722;8.110;2023-02-02T07:09:59;6.60;99.90
7472;DHT22;3777;48.722;8.110;2023-02-02T07:12:26;6.50;99.90
7472;DHT22;3777;48.722;8.110;2023-02-02T07:14:53;6.50;99.90
7472;DHT22;3777;48.722;8.110;2023-02-02T07:17:20;6.50;99.90
7472;DHT22;3777;48.722;8.110;2023-02-02T07:19:48;6.50;99.90
7472;DHT22;3777;48.722;8.110;2023-02-02T07:22:15;6.40;99.90
7472;DHT22;3777;48.722;8.110;2023-02-02T07:24:42;6.40;99.90
7472;DHT22;3777;48.722;8.110;2023-02-02T07:27:09;6.50;99.90
7472;DHT22;3777;48.722;8.110;2023-02-02T07:29:36;6.50;99.90
7472;DHT22;3777;48.722;8.110;2023-02-02T07:32:03;6.60;99.90
7472;DHT22;3777;48.722;8.110;2023-02-02T07:34:30;6.60;99.90
7472;DHT22;3777;48.722;8.110;2023-02-02T07:36:58;6.60;99.90
7472;DHT22;3777;48.722;8.110;2023-02-02T07:39:25;6.70;99.90
7472;DHT22;3777;48.722;8.110;2023-02-02T07:41:52;6.70;99.90
7472;DHT22;3777;48.722;8.110;2023-02-02T07:44:19;6.70;99.90
7472;DHT22;3777;48.722;8.110;2023-02-02T07:46:46;6.70;99.90
7472;DHT22;3777;48.722;8.110;2023-02-02T07:49:15;6.70;99.90
7472;DHT22;3777;48.722;8.110;2023-02-02T07:51:42;6.80;99.90
7472;DHT22;3777;48.722;8.110;2023-02-02T07:54:11;6.80;99.90
7472;DHT22;3777;48.722;8.110;2023-02-02T07:56:38;6.80;99.90
7472;DHT22;3777;48.722;8.110;2023-02-02T07:59:05;6.90;99.90
7472;DHT22;3777;48.722;8.110;2023-02-02T08:01:32;7.00;99.90
7472;DHT22;3777;48.722;8.110;2023-02-02T08:03:59;7.00;99.90
7472;DHT22;3777;48.722;8.110;2023-02-02T08:06:29;7.00;99.90
7472;DHT22;3777;48.722;8.110;2023-02-02T08:08:57;7.10;99.90
7472;DHT22;3777;48.722;8.110;2023-02-02T08:11:26;7.20;99.90
7472;DHT22;3777;48.722;8.110;2023-02-02T08:13:55;7.20;99.90
7472;DHT22;3777;48.722;8.110;2023-02-02T08:16:23;7.20;99.90
7472;DHT22;3777;48.722;8.110;2023-02-02T08:18:51;7.20;99.90
7472;DHT22;3777;48.722;8.110;2023-02-02T08:21:18;7.10;99.90
7472;DHT22;3777;48.722;8.110;2023-02-02T08:23:46;7.10;99.90
7472;DHT22;3777;48.722;8.110;2023-02-02T08:26:15;7.10;99.90
7472;DHT22;3777;48.722;8.110;2023-02-02T08:28:46;7.20;99.90
7472;DHT22;3777;48.722;8.110;2023-02-02T08:31:16;7.20;99.90
7472;DHT22;3777;48.722;8.110;2023-02-02T08:33:43;7.20;99.90
7472;DHT22;3777;48.722;8.110;2023-02-02T08:36:11;7.30;99.90
7472;DHT22;3777;48.722;8.110;2023-02-02T08:38:38;7.30;99.90
7472;DHT22;3777;48.722;8.110;2023-02-02T08:41:06;7.30;99.90
7472;DHT22;3777;48.722;8.110;2023-02-02T08:43:33;7.40;99.90
7472;DHT22;3777;48.722;8.110;2023-02-02T08:46:02;7.40;99.90
7472;DHT22;3777;48.722;8.110;2023-02-02T08:48:29;7.40;99.90
7472;DHT22;3777;48.722;8.110;2023-02-02T08:50:58;7.40;99.90
7472;DHT22;3777;48.722;8.110;2023-02-02T08:53:25;7.40;99.90
7472;DHT22;3777;48.722;8.110;2023-02-02T08:55:57;7.40;99.90
7472;DHT22;3777;48.722;8.110;2023-02-02T08:58:25;7.50;99.90
7472;DHT22;3777;48.722;8.110;2023-02-02T09:00:52;7.50;99.90
7472;DHT22;3777;48.722;8.110;2023-02-02T09:03:20;7.60;99.90
7472;DHT22;3777;48.722;8.110;2023-02-02T09:05:47;7.60;99.90
7472;DHT22;3777;48.722;8.110;2023-02-02T09:08:14;7.60;99.90
7472;DHT22;3777;48.722;8.110;2023-02-02T09:10:41;7.60;99.90
7472;DHT22;3777;48.722;8.110;2023-02-02T09:13:08;7.70;99.90
7472;DHT22;3777;48.722;8.110;2023-02-02T09:15:35;7.70;99.90
7472;DHT22;3777;48.722;8.110;2023-02-02T09:18:03;7.70;99.90
7472;DHT22;3777;48.722;8.110;2023-02-02T09:20:31;7.60;99.90
7472;DHT22;3777;48.722;8.110;2023-02-02T09:22:59;7.70;99.90
7472;DHT22;3777;48.722;8.110;2023-02-02T09:25:25;7.60;99.90
7472;DHT22;3777;48.722;8.110;2023-02-02T09:27:52;7.60;99.90
7472;DHT22;3777;48.722;8.110;2023-02-02T09:30:19;7.50;99.90
7472;DHT22;3777;48.722;8.110;2023-02-02T09:32:48;7.50;99.90
7472;DHT22;3777;48.722;8.110;2023-02-02T09:35:15;7.40;99.90
7472;DHT22;3777;48.722;8.110;2023-02-02T09:37:43;7.40;99.90
7472;DHT22;3777;48.722;8.110;2023-02-02T09:40:14;7.40;99.90
7472;DHT22;3777;48.722;8.110;2023-02-02T09:42:53;7.40;99.90
7472;DHT22;3777;48.722;8.110;2023-02-02T09:45:27;7.30;99.90
7472;DHT22;3777;48.722;8.110;2023-02-02T09:48:08;7.40;99.90
7472;DHT22;3777;48.722;8.110;2023-02-02T09:50:44;7.50;99.90
7472;DHT22;3777;48.722;8.110;2023-02-02T09:53:22;7.60;99.90
7472;DHT22;3777;48.722;8.110;2023-02-02T09:55:52;7.70;99.90
7472;DHT22;3777;48.722;8.110;2023-02-02T09:58:23;7.60;99.90
7472;DHT22;3777;48.722;8.110;2023-02-02T10:00:58;7.70;99.90
7472;DHT22;3777;48.722;8.110;2023-02-02T10:03:31;7.50;99.90
7472;DHT22;3777;48.722;8.110;2023-02-02T10:06:04;7.50;99.90
7472;DHT22;3777;48.722;8.110;2023-02-02T10:08:36;7.50;99.90
7472;DHT22;3777;48.722;8.110;2023-02-02T10:11:26;7.50;99.90
7472;DHT22;3777;48.722;8.110;2023-02-02T10:13:59;7.50;99.90
7472;DHT22;3777;48.722;8.110;2023-02-02T10:16:28;7.50;99.90
7472;DHT22;3777;48.722;8.110;2023-02-02T10:19:00;7.40;99.90
7472;DHT22;3777;48.722;8.110;2023-02-02T10:21:32;7.50;99.90
7472;DHT22;3777;48.722;8.110;2023-02-02T10:24:03;7.50;99.90
7472;DHT22;3777;48.722;8.110;2023-02-02T10:26:36;7.50;99.90
7472;DHT22;3777;48.722;8.110;2023-02-02T10:29:14;7.70;99.90
7472;DHT22;3777;48.722;8.110;2023-02-02T10:31:43;7.80;99.90
7472;DHT22;3777;48.722;8.110;2023-02-02T10:34:17;8.00;99.90
7472;DHT22;3777;48.722;8.110;2023-02-02T10:39:50;8.30;99.90
7472;DHT22;3777;48.722;8.110;2023-02-02T10:42:28;8.50;99.90
7472;DHT22;3777;48.722;8.110;2023-02-02T10:44:58;8.50;99.90
7472;DHT22;3777;48.722;8.110;2023-02-02T10:47:28;8.70;99.90
7472;DHT22;3777;48.722;8.110;2023-02-02T10:50:02;8.70;99.90
7472;DHT22;3777;48.722;8.110;2023-02-02T10:52:36;8.80;99.90
7472;DHT22;3777;48.722;8.110;2023-02-02T10:55:13;8.70;99.90
7472;DHT22;3777;48.722;8.110;2023-02-02T10:57:48;8.80;99.90
7472;DHT22;3777;48.722;8.110;2023-02-02T11:00:23;8.70;99.90
7472;DHT22;3777;48.722;8.110;2023-02-02T11:02:51;8.70;99.90
7472;DHT22;3777;48.722;8.110;2023-02-02T11:05:21;8.80;99.90
7472;DHT22;3777;48.722;8.110;2023-02-02T11:08:14;8.90;99.90
7472;DHT22;3777;48.722;8.110;2023-02-02T11:10:43;9.00;99.90
7472;DHT22;3777;48.722;8.110;2023-02-02T11:13:20;8.90;99.90
7472;DHT22;3777;48.722;8.110;2023-02-02T11:15:49;8.90;99.90
7472;DHT22;3777;48.722;8.110;2023-02-02T11:18:27;8.90;99.90
7472;DHT22;3777;48.722;8.110;2023-02-02T11:20:55;9.00;99.90
7472;DHT22;3777;48.722;8.110;2023-02-02T11:23:25;9.00;99.90
7472;DHT22;3777;48.722;8.110;2023-02-02T11:25:58;9.00;99.90
7472;DHT22;3777;48.722;8.110;2023-02-02T11:28:28;9.10;99.90
7472;DHT22;3777;48.722;8.110;2023-02-02T11:30:57;9.20;99.90
7472;DHT22;3777;48.722;8.110;2023-02-02T11:33:29;9.20;99.90
7472;DHT22;3777;48.722;8.110;2023-02-02T11:35:59;9.30;99.90
7472;DHT22;3777;48.722;8.110;2023-02-02T11:38:27;9.30;99.90
7472;DHT22;3777;48.722;8.110;2023-02-02T11:41:00;9.40;99.90
7472;DHT22;3777;48.722;8.110;2023-02-02T11:43:30;9.30;99.90
7472;DHT22;3777;48.722;8.110;2023-02-02T11:45:59;9.30;99.90
7472;DHT22;3777;48.722;8.110;2023-02-02T11:48:31;9.30;99.90
7472;DHT22;3777;48.722;8.110;2023-02-02T11:51:00;9.20;99.90
7472;DHT22;3777;48.722;8.110;2023-02-02T11:53:29;9.30;99.90
7472;DHT22;3777;48.722;8.110;2023-02-02T11:56:01;9.40;99.90
7472;DHT22;3777;48.722;8.110;2023-02-02T11:58:31;9.60;99.90
7472;DHT22;3777;48.722;8.110;2023-02-02T12:01:21;9.60;99.90
7472;DHT22;3777;48.722;8.110;2023-02-02T12:03:48;9.60;99.90
7472;DHT22;3777;48.722;8.110;2023-02-02T12:06:18;9.60;99.90
7472;DHT22;3777;48.722;8.110;2023-02-02T12:08:46;9.60;99.90
7472;DHT22;3777;48.722;8.110;2023-02-02T12:11:23;9.60;99.90
7472;DHT22;3777;48.722;8.110;2023-02-02T12:14:04;9.70;99.90
7472;DHT22;3777;48.722;8.110;2023-02-02T12:16:46;9.80;99.90
7472;DHT22;3777;48.722;8.110;2023-02-02T12:22:34;9.90;99.90
7472;DHT22;3777;48.722;8.110;2023-02-02T12:25:27;9.90;99.90
7472;DHT22;3777;48.722;8.110;2023-02-02T12:28:08;9.90;99.90
7472;DHT22;3777;48.722;8.110;2023-02-02T12:30:40;9.90;99.90
7472;DHT22;3777;48.722;8.110;2023-02-02T12:33:22;9.90;99.90
7472;DHT22;3777;48.722;8.110;2023-02-02T12:36:06;9.90;99.90
7472;DHT22;3777;48.722;8.110;2023-02-02T12:38:48;9.90;99.90
7472;DHT22;3777;48.722;8.110;2023-02-02T12:41:27;10.00;99.90
7472;DHT22;3777;48.722;8.110;2023-02-02T12:44:00;9.90;99.90
7472;DHT22;3777;48.722;8.110;2023-02-02T12:46:45;9.90;99.90
7472;DHT22;3777;48.722;8.110;2023-02-02T12:49:38;9.90;99.90
7472;DHT22;3777;48.722;8.110;2023-02-02T12:52:15;9.90;99.90
7472;DHT22;3777;48.722;8.110;2023-02-02T12:54:58;9.90;99.90
7472;DHT22;3777;48.722;8.110;2023-02-02T12:57:34;9.90;99.90
7472;DHT22;3777;48.722;8.110;2023-02-02T13:00:23;9.90;99.90
7472;DHT22;3777;48.722;8.110;2023-02-02T13:03:04;9.90;99.90
7472;DHT22;3777;48.722;8.110;2023-02-02T13:05:42;9.80;99.90
7472;DHT22;3777;48.722;8.110;2023-02-02T13:08:13;9.90;99.90
7472;DHT22;3777;48.722;8.110;2023-02-02T13:10:46;9.90;99.90
7472;DHT22;3777;48.722;8.110;2023-02-02T13:13:17;9.90;99.90
7472;DHT22;3777;48.722;8.110;2023-02-02T13:15:48;9.90;99.90
7472;DHT22;3777;48.722;8.110;2023-02-02T13:18:19;10.00;99.90
7472;DHT22;3777;48.722;8.110;2023-02-02T13:20:52;9.90;99.90
7472;DHT22;3777;48.722;8.110;2023-02-02T13:23:24;9.90;99.90
7472;DHT22;3777;48.722;8.110;2023-02-02T13:25:57;9.90;99.90
7472;DHT22;3777;48.722;8.110;2023-02-02T13:28:31;10.00;99.90
7472;DHT22;3777;48.722;8.110;2023-02-02T13:31:06;10.00;99.90
7472;DHT22;3777;48.722;8.110;2023-02-02T13:33:36;10.00;99.90
7472;DHT22;3777;48.722;8.110;2023-02-02T13:36:09;10.00;99.90
7472;DHT22;3777;48.722;8.110;2023-02-02T13:38:39;10.00;99.90
7472;DHT22;3777;48.722;8.110;2023-02-02T13:41:09;10.00;99.90
7472;DHT22;3777;48.722;8.110;2023-02-02T13:43:45;10.10;99.90
7472;DHT22;3777;48.722;8.110;2023-02-02T13:46:24;10.10;99.90
7472;DHT22;3777;48.722;8.110;2023-02-02T13:48:59;10.10;99.90
7472;DHT22;3777;48.722;8.110;2023-02-02T13:51:49;10.10;99.90
7472;DHT22;3777;48.722;8.110;2023-02-02T13:54:46;10.10;99.90
7472;DHT22;3777;48.722;8.110;2023-02-02T13:57:40;10.10;99.90
7472;DHT22;3777;48.722;8.110;2023-02-02T14:00:14;10.00;99.90
7472;DHT22;3777;48.722;8.110;2023-02-02T14:02:46;10.00;99.90
7472;DHT22;3777;48.722;8.110;2023-02-02T14:05:23;10.00;99.90
7472;DHT22;3777;48.722;8.110;2023-02-02T14:07:56;10.00;99.90
7472;DHT22;3777;48.722;8.110;2023-02-02T14:10:27;9.90;99.90
7472;DHT22;3777;48.722;8.110;2023-02-02T14:13:05;9.90;99.90
7472;DHT22;3777;48.722;8.110;2023-02-02T14:15:54;9.90;99.90
7472;DHT22;3777;48.722;8.110;2023-02-02T14:18:57;9.90;99.90
7472;DHT22;3777;48.722;8.110;2023-02-02T14:24:52;10.00;99.90
7472;DHT22;3777;48.722;8.110;2023-02-02T14:27:54;10.00;99.90
7472;DHT22;3777;48.722;8.110;2023-02-02T14:30:30;9.90;99.90
7472;DHT22;3777;48.722;8.110;2023-02-02T14:33:17;9.90;99.90
7472;DHT22;3777;48.722;8.110;2023-02-02T14:36:01;9.90;99.90
7472;DHT22;3777;48.722;8.110;2023-02-02T14:44:33;9.90;99.90
7472;DHT22;3777;48.722;8.110;2023-02-02T14:47:02;9.90;99.90
7472;DHT22;3777;48.722;8.110;2023-02-02T14:49:33;9.90;99.90
7472;DHT22;3777;48.722;8.110;2023-02-02T14:52:02;9.90;99.90
7472;DHT22;3777;48.722;8.110;2023-02-02T14:54:38;9.90;99.90
7472;DHT22;3777;48.722;8.110;2023-02-02T14:57:21;9.90;99.90
7472;DHT22;3777;48.722;8.110;2023-02-02T14:59:51;9.90;99.90
7472;DHT22;3777;48.722;8.110;2023-02-02T15:02:22;9.90;99.90
7472;DHT22;3777;48.722;8.110;2023-02-02T15:04:50;9.90;99.90
7472;DHT22;3777;48.722;8.110;2023-02-02T15:07:37;9.90;99.90
7472;DHT22;3777;48.722;8.110;2023-02-02T15:13:19;9.80;99.90
7472;DHT22;3777;48.722;8.110;2023-02-02T15:15:48;9.80;99.90
7472;DHT22;3777;48.722;8.110;2023-02-02T15:18:24;9.70;99.90
7472;DHT22;3777;48.722;8.110;2023-02-02T15:20:55;9.70;99.90
7472;DHT22;3777;48.722;8.110;2023-02-02T15:23:29;9.70;99.90
7472;DHT22;3777;48.722;8.110;2023-02-02T15:26:02;9.70;99.90
7472;DHT22;3777;48.722;8.110;2023-02-02T15:28:36;9.70;99.90
7472;DHT22;3777;48.722;8.110;2023-02-02T15:31:08;9.70;99.90
7472;DHT22;3777;48.722;8.110;2023-02-02T15:33:41;9.60;99.90
7472;DHT22;3777;48.722;8.110;2023-02-02T15:36:12;9.60;99.90
7472;DHT22;3777;48.722;8.110;2023-02-02T15:38:44;9.60;99.90
7472;DHT22;3777;48.722;8.110;2023-02-02T15:41:18;9.70;99.90
7472;DHT22;3777;48.722;8.110;2023-02-02T15:43:46;9.80;99.90
7472;DHT22;3777;48.722;8.110;2023-02-02T15:46:16;9.80;99.90
7472;DHT22;3777;48.722;8.110;2023-02-02T15:49:13;9.80;99.90
7472;DHT22;3777;48.722;8.110;2023-02-02T15:51:42;9.70;99.90
7472;DHT22;3777;48.722;8.110;2023-02-02T15:54:22;9.70;99.90
7472;DHT22;3777;48.722;8.110;2023-02-02T15:56:49;9.70;99.90
7472;DHT22;3777;48.722;8.110;2023-02-02T15:59:18;9.60;99.90
7472;DHT22;3777;48.722;8.110;2023-02-02T16:01:47;9.70;99.90
7472;DHT22;3777;48.722;8.110;2023-02-02T16:04:17;9.70;99.90
7472;DHT22;3777;48.722;8.110;2023-02-02T16:06:46;9.60;99.90
7472;DHT22;3777;48.722;8.110;2023-02-02T16:09:23;9.70;99.90
7472;DHT22;3777;48.722;8.110;2023-02-02T16:11:51;9.70;99.90
7472;DHT22;3777;48.722;8.110;2023-02-02T16:14:18;9.60;99.90
7472;DHT22;3777;48.722;8.110;2023-02-02T16:16:46;9.60;99.90
7472;DHT22;3777;48.722;8.110;2023-02-02T16:19:17;9.60;99.90
7472;DHT22;3777;48.722;8.110;2023-02-02T16:21:47;9.60;99.90
7472;DHT22;3777;48.722;8.110;2023-02-02T16:24:19;9.50;99.90
7472;DHT22;3777;48.722;8.110;2023-02-02T16:26:50;9.60;99.90
7472;DHT22;3777;48.722;8.110;2023-02-02T16:29:18;9.50;99.90
7472;DHT22;3777;48.722;8.110;2023-02-02T16:31:46;9.50;99.90
7472;DHT22;3777;48.722;8.110;2023-02-02T16:34:15;9.40;99.90
7472;DHT22;3777;48.722;8.110;2023-02-02T16:36:42;9.50;99.90
7472;DHT22;3777;48.722;8.110;2023-02-02T16:39:21;9.40;99.90
7472;DHT22;3777;48.722;8.110;2023-02-02T16:41:50;9.40;99.90
7472;DHT22;3777;48.722;8.110;2023-02-02T16:44:36;9.40;99.90
7472;DHT22;3777;48.722;8.110;2023-02-02T16:47:05;9.40;99.90
7472;DHT22;3777;48.722;8.110;2023-02-02T16:49:33;9.40;99.90
7472;DHT22;3777;48.722;8.110;2023-02-02T16:52:10;9.40;99.90
7472;DHT22;3777;48.722;8.110;2023-02-02T16:54:39;9.40;99.90
7472;DHT22;3777;48.722;8.110;2023-02-02T16:57:16;9.40;99.90
7472;DHT22;3777;48.722;8.110;2023-02-02T16:59:47;9.40;99.90
7472;DHT22;3777;48.722;8.110;2023-02-02T17:02:23;9.40;99.90
7472;DHT22;3777;48.722;8.110;2023-02-02T17:04:53;9.40;99.90
7472;DHT22;3777;48.722;8.110;2023-02-02T17:07:21;9.40;99.90